Time;durP1;ratioP1;P1;durP2;ratioP2;P2;SDS_P1;SDS_P2;PMS_P1;PMS_P2;Temp;Humidity;BMP_temperature;BMP_pressure;BME280_temperature;BME280_humidity;BME280_pressure;Samples;Min_cycle;Max_cycle;Signal;HPM_P1;HPM_P2
2023/03/26 00:04:27;;;;;;;4.10;1.40;;;9.90;99.90;;;;;;10301750;28;20230;-72
2023/03/26 00:09:28;;;;;;;5.60;1.50;;;9.80;99.90;;;;;;10306443;28;20219;-72
2023/03/26 00:14:29;;;;;;;8.43;1.77;;;9.70;99.90;;;;;;10304516;28;20233;-73
2023/03/26 00:19:29;;;;;;;4.93;1.73;;;9.50;99.90;;;;;;10305427;28;20223;-72
2023/03/26 00:24:36;;;;;;;5.73;1.83;;;9.30;99.90;;;;;;10331146;28;20217;-72
2023/03/26 00:29:38;;;;;;;6.50;1.93;;;9.20;99.90;;;;;;10312204;28;20694;-72
2023/03/26 00:34:40;;;;;;;7.90;1.80;;;9.10;99.90;;;;;;10313641;28;20224;-74
2023/03/26 00:39:41;;;;;;;5.87;1.50;;;9.00;99.90;;;;;;10317712;28;20277;-73
2023/03/26 00:44:42;;;;;;;6.93;1.67;;;9.00;99.90;;;;;;10314266;28;20237;-73
2023/03/26 00:49:45;;;;;;;6.33;1.47;;;8.90;99.90;;;;;;10331030;28;20221;-71
2023/03/26 00:54:47;;;;;;;6.70;1.60;;;8.90;99.90;;;;;;10320633;28;20256;-73
2023/03/26 00:59:50;;;;;;;8.13;1.80;;;8.80;99.90;;;;;;10317361;28;20308;-72
2023/03/26 01:04:56;;;;;;;7.70;2.40;;;8.80;99.90;;;;;;10329340;28;20759;-68
2023/03/26 01:09:58;;;;;;;9.67;2.60;;;8.80;99.90;;;;;;10315188;28;20304;-67
2023/03/26 01:15:01;;;;;;;6.27;1.60;;;8.80;99.90;;;;;;10321915;28;20247;-66
2023/03/26 01:20:18;;;;;;;7.83;1.80;;;8.80;99.90;;;;;;10307331;28;20234;-68
2023/03/26 01:25:21;;;;;;;10.50;1.83;;;8.90;99.90;;;;;;10308675;28;20724;-68
2023/03/26 01:30:41;;;;;;;8.47;2.20;;;8.90;99.90;;;;;;10318995;28;20202;-67
2023/03/26 01:36:05;;;;;;;7.03;2.20;;;8.90;99.90;;;;;;10322772;28;20229;-69
2023/03/26 01:41:16;;;;;;;6.43;1.90;;;9.00;99.90;;;;;;10313933;28;20260;-67
2023/03/26 01:46:19;;;;;;;10.30;1.90;;;9.00;99.90;;;;;;10307782;28;20985;-67
2023/03/26 01:51:32;;;;;;;5.53;2.00;;;9.00;99.90;;;;;;10324653;28;20311;-68
2023/03/26 01:56:50;;;;;;;7.60;1.93;;;9.00;99.90;;;;;;10309398;28;20238;-67
2023/03/26 02:02:08;;;;;;;7.53;2.37;;;9.00;99.90;;;;;;10311451;28;20334;-66
2023/03/26 02:07:33;;;;;;;9.00;2.03;;;8.90;99.90;;;;;;10306649;28;20229;-67
2023/03/26 02:12:35;;;;;;;5.37;1.87;;;8.90;99.90;;;;;;10315016;28;20226;-68
2023/03/26 02:17:39;;;;;;;9.03;2.30;;;8.80;99.90;;;;;;10304700;28;20297;-67
2023/03/26 02:22:44;;;;;;;10.17;2.17;;;8.70;99.90;;;;;;10304853;28;20222;-66
2023/03/26 02:27:48;;;;;;;8.93;2.17;;;8.70;99.90;;;;;;10310178;28;20436;-68
2023/03/26 02:32:50;;;;;;;7.83;2.07;;;8.80;99.90;;;;;;10321248;28;20271;-68
2023/03/26 02:37:51;;;;;;;7.40;2.17;;;8.80;99.90;;;;;;10310567;28;20237;-68
2023/03/26 02:42:52;;;;;;;7.83;2.30;;;8.90;99.90;;;;;;10318852;28;20231;-66
2023/03/26 02:47:52;;;;;;;8.37;2.20;;;8.90;99.90;;;;;;10310117;28;20232;-67
2023/03/26 02:52:53;;;;;;;9.60;1.83;;;9.00;99.90;;;;;;10310605;28;20312;-67
2023/03/26 02:57:53;;;;;;;7.17;2.47;;;9.10;99.90;;;;;;10332790;28;20253;-67
2023/03/26 03:02:56;;;;;;;10.47;2.80;;;9.10;99.90;;;;;;10305839;28;20233;-66
2023/03/26 03:07:58;;;;;;;10.90;2.47;;;9.20;99.90;;;;;;10318028;28;20305;-67
2023/03/26 03:12:58;;;;;;;9.13;2.40;;;9.20;99.90;;;;;;10317931;28;20575;-67
2023/03/26 03:18:02;;;;;;;9.00;2.50;;;9.20;99.90;;;;;;10309810;28;20229;-66
2023/03/26 03:23:02;;;;;;;8.20;1.90;;;9.20;99.90;;;;;;10302821;28;20680;-68
2023/03/26 03:28:03;;;;;;;10.17;2.40;;;9.20;99.90;;;;;;10313081;28;20225;-67
2023/03/26 03:33:04;;;;;;;5.60;1.70;;;9.20;99.90;;;;;;10302793;28;20235;-67
2023/03/26 03:38:05;;;;;;;10.13;2.13;;;9.20;99.90;;;;;;10310226;28;20843;-67
2023/03/26 03:43:06;;;;;;;9.57;2.37;;;9.20;99.90;;;;;;10302405;28;20387;-67
2023/03/26 03:48:06;;;;;;;8.43;1.90;;;9.10;99.90;;;;;;10309637;28;20224;-68
2023/03/26 03:53:07;;;;;;;9.10;2.87;;;9.10;99.90;;;;;;10315731;28;20664;-67
2023/03/26 03:58:08;;;;;;;7.17;2.10;;;9.10;99.90;;;;;;10315220;28;20229;-66
2023/03/26 04:03:08;;;;;;;7.27;2.20;;;9.10;99.90;;;;;;10311001;28;20233;-67
2023/03/26 04:08:09;;;;;;;8.93;2.47;;;9.10;99.90;;;;;;10309900;28;20228;-67
2023/03/26 04:13:11;;;;;;;9.07;2.27;;;9.10;99.90;;;;;;10317462;28;20229;-67
2023/03/26 04:18:14;;;;;;;4.60;1.63;;;9.10;99.90;;;;;;10310221;28;20237;-67
2023/03/26 04:23:17;;;;;;;13.10;2.47;;;9.10;99.90;;;;;;10331114;28;20289;-67
2023/03/26 04:28:25;;;;;;;6.60;1.97;;;9.10;99.90;;;;;;10311552;28;20268;-67
2023/03/26 04:33:28;;;;;;;8.23;2.63;;;9.10;99.90;;;;;;10317189;28;20217;-70
2023/03/26 04:38:32;;;;;;;8.17;2.20;;;9.10;99.90;;;;;;10316193;28;20333;-66
2023/03/26 04:43:35;;;;;;;7.90;2.13;;;9.10;99.90;;;;;;10312564;28;20221;-68
2023/03/26 04:48:37;;;;;;;9.60;2.20;;;9.00;99.90;;;;;;10313537;28;20229;-67
2023/03/26 04:53:38;;;;;;;5.83;1.70;;;9.00;99.90;;;;;;10335181;28;20226;-67
2023/03/26 04:58:38;;;;;;;6.23;1.97;;;9.00;99.90;;;;;;10327915;28;20229;-67
2023/03/26 05:03:40;;;;;;;7.10;2.23;;;9.00;99.90;;;;;;10312821;28;20254;-67
2023/03/26 05:08:41;;;;;;;10.43;2.67;;;9.00;99.90;;;;;;10308778;28;20230;-67
2023/03/26 05:13:41;;;;;;;9.33;2.33;;;9.00;99.90;;;;;;10312406;28;20224;-67
2023/03/26 05:18:42;;;;;;;7.77;2.17;;;9.00;99.90;;;;;;10307076;28;20236;-66
2023/03/26 05:23:42;;;;;;;12.47;2.23;;;9.00;99.90;;;;;;10318329;28;20393;-66
2023/03/26 05:28:43;;;;;;;10.40;2.40;;;9.00;99.90;;;;;;10319140;28;20224;-67
2023/03/26 05:33:45;;;;;;;9.17;2.53;;;9.10;99.90;;;;;;10308635;28;20233;-67
2023/03/26 05:38:48;;;;;;;7.93;2.33;;;9.10;99.90;;;;;;10312280;28;20233;-67
2023/03/26 05:43:50;;;;;;;12.17;2.20;;;9.20;99.90;;;;;;10307615;28;20581;-67
2023/03/26 05:48:50;;;;;;;9.10;1.90;;;9.30;99.90;;;;;;10318826;28;20262;-66
2023/03/26 05:53:51;;;;;;;8.53;2.77;;;9.30;99.90;;;;;;10305647;28;20321;-67
2023/03/26 05:58:52;;;;;;;14.70;2.70;;;9.30;99.90;;;;;;10314175;28;20326;-67
2023/03/26 06:03:52;;;;;;;9.20;2.50;;;9.30;99.90;;;;;;10313530;28;20313;-66
2023/03/26 06:08:56;;;;;;;10.37;2.43;;;9.30;99.90;;;;;;10318585;28;20276;-67
2023/03/26 06:13:56;;;;;;;10.17;2.37;;;9.30;99.90;;;;;;10306182;28;20241;-67
2023/03/26 06:18:57;;;;;;;12.20;2.50;;;9.40;99.90;;;;;;10318335;28;20236;-66
2023/03/26 06:23:58;;;;;;;10.70;2.50;;;9.50;99.90;;;;;;10319131;28;20264;-67
2023/03/26 06:28:58;;;;;;;9.17;2.50;;;9.50;99.90;;;;;;10320786;28;20314;-66
2023/03/26 06:33:59;;;;;;;8.67;2.33;;;9.60;99.90;;;;;;10304783;28;20231;-66
2023/03/26 06:39:00;;;;;;;8.90;2.60;;;9.60;99.90;;;;;;10310086;28;20257;-66
2023/03/26 06:44:01;;;;;;;8.53;2.73;;;9.60;99.90;;;;;;10313291;28;20313;-66
2023/03/26 06:49:01;;;;;;;6.60;2.00;;;9.70;99.90;;;;;;10320696;28;20214;-67
2023/03/26 06:54:02;;;;;;;10.07;2.13;;;9.60;99.90;;;;;;10328951;28;20228;-68
2023/03/26 06:59:03;;;;;;;11.30;2.97;;;9.40;99.90;;;;;;10309695;28;20233;-66
2023/03/26 07:04:03;;;;;;;14.13;2.47;;;9.30;99.90;;;;;;10318052;28;20273;-67
2023/03/26 07:09:04;;;;;;;7.47;2.40;;;9.20;99.90;;;;;;10303094;28;20265;-67
2023/03/26 07:14:05;;;;;;;10.23;2.80;;;9.30;99.90;;;;;;10302814;28;20226;-67
2023/03/26 07:19:05;;;;;;;7.40;1.97;;;9.30;99.90;;;;;;10316462;28;20669;-67
2023/03/26 07:24:09;;;;;;;7.27;2.50;;;9.30;99.90;;;;;;10317100;28;20276;-66
2023/03/26 07:29:34;;;;;;;10.27;2.70;;;9.40;99.90;;;;;;10302343;28;20759;-67
2023/03/26 07:34:52;;;;;;;10.23;2.87;;;9.40;99.90;;;;;;10306587;28;20226;-67
2023/03/26 07:40:44;;;;;;;9.77;2.87;;;9.50;99.90;;;;;;10302894;28;20723;-69
2023/03/26 07:45:44;;;;;;;11.47;3.13;;;9.50;99.90;;;;;;10288093;28;20357;-66
2023/03/26 07:50:46;;;;;;;6.87;2.40;;;9.30;99.90;;;;;;10307848;28;20868;-68
2023/03/26 07:55:57;;;;;;;9.83;2.63;;;9.30;99.90;;;;;;10310002;28;20269;-67
2023/03/26 08:01:05;;;;;;;9.10;3.40;;;9.30;99.90;;;;;;10302828;28;20242;-67
2023/03/26 08:06:26;;;;;;;8.27;2.47;;;9.50;99.90;;;;;;10301436;28;20932;-67
2023/03/26 08:12:04;;;;;;;8.00;2.30;;;9.60;99.90;;;;;;10306372;28;20226;-66
2023/03/26 08:17:23;;;;;;;8.63;2.60;;;9.70;99.90;;;;;;10302588;28;20215;-67
2023/03/26 08:22:33;;;;;;;9.73;2.70;;;9.90;99.90;;;;;;10307124;28;20225;-67
2023/03/26 08:27:46;;;;;;;6.77;2.13;;;10.00;99.90;;;;;;10305432;28;20256;-68
2023/03/26 08:33:15;;;;;;;9.30;2.60;;;10.10;99.90;;;;;;10303991;28;20207;-66
2023/03/26 08:38:18;;;;;;;8.10;2.50;;;10.10;99.90;;;;;;10317704;28;20219;-66
2023/03/26 08:43:25;;;;;;;7.67;2.60;;;10.10;99.90;;;;;;10310042;28;20218;-66
2023/03/26 08:49:02;;;;;;;9.77;2.57;;;10.00;99.90;;;;;;10325235;28;20364;-66
2023/03/26 08:54:31;;;;;;;10.50;2.90;;;9.90;99.90;;;;;;10325194;28;20228;-68
2023/03/26 08:59:56;;;;;;;13.33;3.60;;;9.60;99.90;;;;;;10312032;28;20781;-67
2023/03/26 09:05:27;;;;;;;7.77;3.33;;;9.40;99.90;;;;;;10321555;28;20640;-67
2023/03/26 09:11:06;;;;;;;11.37;3.00;;;9.20;99.90;;;;;;10302176;28;20217;-66
2023/03/26 09:16:17;;;;;;;9.23;2.53;;;9.10;99.90;;;;;;10304212;28;20214;-67
2023/03/26 09:21:45;;;;;;;9.50;2.80;;;9.30;99.90;;;;;;10313804;28;20847;-68
2023/03/26 09:27:21;;;;;;;8.80;2.03;;;9.40;99.90;;;;;;10316438;28;20229;-67
2023/03/26 09:32:43;;;;;;;4.33;2.20;;;9.30;99.90;;;;;;10308595;28;20253;-67
2023/03/26 09:37:56;;;;;;;4.80;2.10;;;9.40;99.90;;;;;;10309219;28;20222;-68
2023/03/26 09:43:18;;;;;;;8.93;1.93;;;9.70;99.90;;;;;;10312904;28;20226;-68
2023/03/26 09:48:47;;;;;;;3.30;1.63;;;9.60;99.90;;;;;;10308022;28;20241;-67
2023/03/26 09:54:00;;;;;;;8.70;2.20;;;9.50;99.90;;;;;;10306934;28;20942;-68
2023/03/26 09:59:34;;;;;;;9.63;1.70;;;9.70;99.90;;;;;;10312909;28;20218;-67
2023/03/26 10:04:54;;;;;;;4.63;1.53;;;10.00;99.90;;;;;;10308580;28;20309;-67
2023/03/26 10:10:01;;;;;;;5.00;1.80;;;10.40;99.90;;;;;;10313525;28;20678;-67
2023/03/26 10:15:10;;;;;;;5.87;2.00;;;10.60;99.90;;;;;;10305061;28;20285;-67
2023/03/26 10:20:32;;;;;;;3.20;1.27;;;11.10;99.90;;;;;;10305163;28;20282;-68
2023/03/26 10:25:39;;;;;;;6.13;1.37;;;12.00;99.90;;;;;;10315093;28;20210;-67
2023/03/26 10:30:59;;;;;;;3.80;1.77;;;13.20;99.90;;;;;;10304003;28;20218;-68
2023/03/26 10:36:33;;;;;;;2.73;1.30;;;15.00;99.90;;;;;;10336301;28;20236;-68
2023/03/26 10:41:48;;;;;;;5.23;1.33;;;18.20;99.90;;;;;;10315757;28;20236;-67
2023/03/26 10:47:27;;;;;;;4.07;1.30;;;22.40;94.70;;;;;;10329021;28;20220;-69
2023/03/26 10:52:40;;;;;;;3.10;1.40;;;21.10;91.70;;;;;;10309571;28;20637;-67
2023/03/26 10:57:59;;;;;;;3.23;1.43;;;18.90;96.00;;;;;;10329863;28;20228;-68
2023/03/26 11:03:39;;;;;;;1.47;0.77;;;18.10;98.80;;;;;;10303970;28;20331;-68
2023/03/26 11:09:02;;;;;;;4.63;1.67;;;22.30;92.70;;;;;;10309780;28;20219;-66
2023/03/26 11:14:15;;;;;;;3.73;1.37;;;23.70;86.20;;;;;;10303133;28;20237;-68
2023/03/26 11:19:39;;;;;;;2.57;1.40;;;25.50;68.00;;;;;;10310239;28;20226;-67
2023/03/26 11:24:52;;;;;;;3.67;1.67;;;23.70;68.70;;;;;;10300592;28;20680;-67
2023/03/26 11:30:03;;;;;;;2.33;1.30;;;20.80;79.60;;;;;;10310872;28;20230;-68
2023/03/26 11:35:14;;;;;;;3.13;1.30;;;18.80;89.70;;;;;;10309658;28;20233;-68
2023/03/26 11:40:28;;;;;;;3.57;1.53;;;17.30;93.10;;;;;;10308346;28;20754;-68
2023/03/26 11:45:36;;;;;;;2.90;1.40;;;16.50;96.60;;;;;;10301546;28;20238;-68
2023/03/26 11:50:44;;;;;;;3.87;1.80;;;16.20;99.80;;;;;;10306269;28;20221;-68
2023/03/26 11:56:03;;;;;;;5.33;1.93;;;15.80;99.90;;;;;;10310297;28;20226;-67
2023/03/26 12:01:12;;;;;;;4.43;1.77;;;15.00;99.90;;;;;;10299675;28;20280;-67
2023/03/26 12:06:24;;;;;;;3.77;1.70;;;14.00;99.90;;;;;;10307886;28;20219;-67
2023/03/26 12:11:27;;;;;;;3.93;1.83;;;13.40;99.90;;;;;;10304151;28;20241;-67
2023/03/26 12:16:29;;;;;;;4.83;1.37;;;13.50;99.90;;;;;;10307759;28;20697;-68
2023/03/26 12:21:44;;;;;;;2.03;1.10;;;14.40;99.90;;;;;;10312059;28;20689;-67
2023/03/26 12:26:55;;;;;;;2.17;0.70;;;15.10;99.90;;;;;;10311570;28;20298;-67
2023/03/26 12:32:04;;;;;;;1.43;0.50;;;15.40;99.90;;;;;;10326075;28;20226;-68
2023/03/26 12:37:26;;;;;;;2.50;0.70;;;15.10;99.90;;;;;;10308725;28;20308;-69
2023/03/26 12:42:33;;;;;;;1.70;0.50;;;14.70;99.90;;;;;;10313174;28;20305;-68
2023/03/26 12:47:34;;;;;;;0.73;0.40;;;14.80;99.90;;;;;;10322552;28;20221;-67
2023/03/26 12:52:54;;;;;;;1.13;0.50;;;15.00;99.90;;;;;;10316262;28;20233;-67
2023/03/26 12:58:12;;;;;;;1.43;0.60;;;15.30;99.90;;;;;;10322146;28;20252;-68
2023/03/26 13:03:26;;;;;;;2.10;0.90;;;15.20;99.90;;;;;;10326185;28;20814;-68
2023/03/26 13:08:39;;;;;;;1.83;0.40;;;15.10;99.90;;;;;;10321551;28;20227;-70
2023/03/26 13:13:58;;;;;;;6.27;0.83;;;15.20;99.90;;;;;;10311375;28;20222;-67
2023/03/26 13:19:08;;;;;;;1.00;0.43;;;15.20;99.90;;;;;;10307206;28;20226;-67
2023/03/26 13:24:17;;;;;;;2.30;0.70;;;15.10;99.90;;;;;;10314954;28;20867;-66
2023/03/26 13:29:55;;;;;;;3.57;0.50;;;14.90;99.90;;;;;;10312075;28;20621;-68
2023/03/26 13:35:07;;;;;;;3.37;0.63;;;14.90;99.90;;;;;;10309320;28;20222;-73
2023/03/26 13:40:23;;;;;;;2.80;0.70;;;14.90;99.90;;;;;;10318608;28;20292;-67
2023/03/26 13:46:11;;;;;;;4.10;0.90;;;15.00;99.90;;;;;;10313660;28;23529;-66
2023/03/26 13:51:17;;;;;;;3.23;0.70;;;15.00;99.90;;;;;;10281223;28;20229;-70
2023/03/26 13:56:24;;;;;;;1.27;0.77;;;14.90;99.90;;;;;;10321593;28;20693;-68
2023/03/26 14:01:35;;;;;;;2.40;1.00;;;14.70;99.90;;;;;;10307051;28;20241;-70
2023/03/26 14:06:55;;;;;;;4.10;0.90;;;14.70;99.90;;;;;;10311129;28;20262;-67
2023/03/26 14:11:56;;;;;;;2.87;0.80;;;14.50;99.90;;;;;;10325876;28;20226;-68
2023/03/26 14:17:21;;;;;;;3.70;1.03;;;14.20;99.90;;;;;;10326587;28;20218;-68
2023/03/26 14:22:44;;;;;;;2.43;0.70;;;13.90;99.90;;;;;;10317241;28;20652;-68
2023/03/26 14:28:00;;;;;;;2.23;0.73;;;14.20;99.90;;;;;;10317503;28;20222;-68
2023/03/26 14:33:37;;;;;;;3.50;0.97;;;14.70;99.90;;;;;;10320259;28;20776;-66
2023/03/26 14:39:15;;;;;;;2.73;0.80;;;15.00;99.90;;;;;;10316745;28;20226;-67
2023/03/26 14:45:00;;;;;;;3.57;0.90;;;15.30;99.90;;;;;;10304647;28;20462;-65
2023/03/26 14:50:21;;;;;;;3.23;0.90;;;15.30;99.90;;;;;;10316224;28;20226;-66
2023/03/26 14:55:47;;;;;;;4.07;1.03;;;15.20;99.90;;;;;;10311964;28;20696;-65
2023/03/26 15:01:06;;;;;;;5.73;1.00;;;14.90;99.90;;;;;;10325812;28;20226;-65
2023/03/26 15:06:45;;;;;;;5.47;1.17;;;14.70;99.90;;;;;;10310083;28;20264;-67
2023/03/26 15:12:32;;;;;;;5.30;1.37;;;14.70;99.90;;;;;;10305999;28;20235;-69
2023/03/26 15:17:44;;;;;;;3.07;0.90;;;14.60;99.90;;;;;;10306936;28;20240;-68
2023/03/26 15:23:10;;;;;;;3.53;1.00;;;14.60;99.90;;;;;;10318076;28;20276;-65
2023/03/26 15:28:16;;;;;;;2.93;1.43;;;14.60;99.90;;;;;;10310148;28;20237;-65
2023/03/26 15:33:50;;;;;;;2.43;0.93;;;14.30;99.90;;;;;;10310217;28;20214;-65
2023/03/26 15:39:23;;;;;;;4.37;1.00;;;14.20;99.90;;;;;;10308333;28;20597;-65
2023/03/26 15:44:24;;;;;;;4.63;1.10;;;14.30;99.90;;;;;;10296684;28;20704;-73
2023/03/26 15:49:49;;;;;;;4.30;1.30;;;14.10;99.90;;;;;;10307492;28;20233;-66
2023/03/26 15:55:00;;;;;;;4.60;1.13;;;13.60;99.90;;;;;;10317665;28;20325;-65
2023/03/26 16:00:18;;;;;;;3.70;1.00;;;13.20;99.90;;;;;;10310205;28;20233;-65
2023/03/26 16:05:40;;;;;;;4.67;1.30;;;13.10;99.90;;;;;;10309945;28;20313;-66
2023/03/26 16:10:54;;;;;;;1.77;0.60;;;12.90;99.90;;;;;;10313134;28;20218;-66
2023/03/26 16:16:05;;;;;;;3.37;0.77;;;11.60;99.90;;;;;;10310552;28;20317;-68
2023/03/26 16:21:44;;;;;;;1.33;0.33;;;10.20;99.90;;;;;;10315055;28;20332;-67
2023/03/26 16:26:51;;;;;;;2.53;0.77;;;9.60;99.90;;;;;;10310777;28;20230;-65
2023/03/26 16:32:13;;;;;;;1.90;0.37;;;9.20;99.90;;;;;;10317795;28;20218;-65
2023/03/26 16:37:34;;;;;;;1.23;0.40;;;8.90;99.90;;;;;;10320832;28;20589;-65
2023/03/26 16:42:40;;;;;;;1.67;0.70;;;8.90;99.90;;;;;;10309908;28;20233;-64
2023/03/26 16:47:44;;;;;;;2.67;0.90;;;8.90;99.90;;;;;;10316220;28;20288;-64
2023/03/26 16:52:57;;;;;;;1.23;0.60;;;8.90;99.90;;;;;;10308533;28;20222;-65
2023/03/26 16:58:14;;;;;;;3.27;2.23;;;9.00;99.90;;;;;;10316481;28;20225;-66
2023/03/26 17:03:40;;;;;;;4.23;2.10;;;9.20;99.90;;;;;;10328648;28;20349;-65
2023/03/26 17:08:57;;;;;;;4.93;1.00;;;9.30;99.90;;;;;;10318576;28;20236;-68
2023/03/26 17:14:06;;;;;;;2.97;0.90;;;9.40;99.90;;;;;;10313158;28;20665;-65
2023/03/26 17:19:31;;;;;;;3.07;0.80;;;9.40;99.90;;;;;;10310982;28;20229;-66
2023/03/26 17:24:34;;;;;;;4.23;1.00;;;9.30;99.90;;;;;;10310168;28;20223;-65
2023/03/26 17:29:56;;;;;;;1.83;0.70;;;9.30;99.90;;;;;;10311255;28;20220;-67
2023/03/26 17:35:03;;;;;;;5.73;0.90;;;9.20;99.90;;;;;;10319315;28;20703;-67
2023/03/26 17:40:11;;;;;;;6.07;1.20;;;9.10;99.90;;;;;;10329537;28;20237;-64
2023/03/26 17:45:22;;;;;;;6.63;1.60;;;9.10;99.90;;;;;;10308199;28;20234;-61
2023/03/26 17:50:33;;;;;;;3.37;1.00;;;9.00;99.90;;;;;;10307186;28;20222;-65
2023/03/26 17:55:37;;;;;;;2.37;0.70;;;9.00;99.90;;;;;;10310605;28;20310;-62
2023/03/26 18:00:43;;;;;;;1.40;0.80;;;8.90;99.90;;;;;;10309607;28;20230;-62
2023/03/26 18:05:46;;;;;;;3.30;1.03;;;8.90;99.90;;;;;;10308424;28;20229;-65
2023/03/26 18:10:46;;;;;;;1.53;0.83;;;8.90;99.90;;;;;;10306405;28;20744;-65
2023/03/26 18:16:17;;;;;;;2.40;0.73;;;8.80;99.90;;;;;;10307607;28;20222;-65
2023/03/26 18:21:38;;;;;;;1.77;0.70;;;8.80;99.90;;;;;;10313759;28;20709;-65
2023/03/26 18:26:44;;;;;;;1.93;0.67;;;8.90;99.90;;;;;;10308460;28;20222;-64
2023/03/26 18:31:46;;;;;;;2.53;0.67;;;9.00;99.90;;;;;;10312887;28;20230;-64
2023/03/26 18:37:00;;;;;;;1.37;0.83;;;9.10;99.90;;;;;;10308768;28;20781;-64
2023/03/26 18:42:00;;;;;;;1.57;0.80;;;9.20;99.90;;;;;;10322374;28;20325;-65
2023/03/26 18:47:05;;;;;;;1.47;0.60;;;9.30;99.90;;;;;;10322928;28;20251;-64
2023/03/26 18:52:12;;;;;;;2.00;0.77;;;9.30;99.90;;;;;;10306234;28;20228;-65
2023/03/26 18:57:21;;;;;;;2.33;1.20;;;9.30;99.90;;;;;;10312863;28;20225;-67
2023/03/26 19:02:23;;;;;;;3.37;0.97;;;9.30;99.90;;;;;;10326480;28;20316;-65
2023/03/26 19:07:25;;;;;;;1.73;0.60;;;9.30;99.90;;;;;;10307902;28;20818;-67
2023/03/26 19:12:31;;;;;;;2.27;0.90;;;9.30;99.90;;;;;;10315636;28;20725;-65
2023/03/26 19:17:43;;;;;;;2.13;0.70;;;9.30;99.90;;;;;;10322468;28;20225;-64
2023/03/26 19:22:45;;;;;;;1.70;0.77;;;9.40;99.90;;;;;;10319144;28;20237;-64
2023/03/26 19:27:47;;;;;;;4.37;0.80;;;9.30;99.90;;;;;;10313605;28;20230;-64
2023/03/26 19:32:54;;;;;;;2.20;1.10;;;9.40;99.90;;;;;;10324144;28;20218;-64
2023/03/26 19:37:55;;;;;;;3.10;1.50;;;9.40;99.90;;;;;;10311682;28;20214;-67
2023/03/26 19:42:58;;;;;;;2.17;0.80;;;9.40;99.90;;;;;;10313254;28;20217;-66
2023/03/26 19:48:00;;;;;;;2.33;0.80;;;9.30;99.90;;;;;;10309847;28;20243;-71
2023/03/26 19:53:50;;;;;;;1.47;0.80;;;9.30;99.90;;;;;;10299758;28;20280;-64
2023/03/26 19:58:51;;;;;;;1.70;1.27;;;9.20;99.90;;;;;;10305911;28;20312;-65
2023/03/26 20:03:57;;;;;;;2.57;1.33;;;9.30;99.90;;;;;;10302051;28;20846;-65
2023/03/26 20:08:58;;;;;;;2.60;1.10;;;9.30;99.90;;;;;;10308203;28;20222;-66
2023/03/26 20:14:00;;;;;;;3.10;1.20;;;9.30;99.90;;;;;;10302523;28;20323;-65
2023/03/26 20:19:03;;;;;;;3.37;1.17;;;9.30;99.90;;;;;;10309484;28;20230;-68
2023/03/26 20:24:16;;;;;;;1.37;0.80;;;9.30;99.90;;;;;;10302234;28;20305;-68
2023/03/26 20:29:17;;;;;;;2.03;0.80;;;9.30;99.90;;;;;;10302527;28;20600;-63
2023/03/26 20:34:22;;;;;;;4.10;0.80;;;9.30;99.90;;;;;;10310135;28;20218;-65
2023/03/26 20:39:23;;;;;;;1.00;0.60;;;9.30;99.90;;;;;;10308394;28;20222;-65
2023/03/26 20:44:25;;;;;;;1.20;0.60;;;9.20;99.90;;;;;;10312111;28;20218;-65
2023/03/26 20:49:28;;;;;;;1.47;0.70;;;9.20;99.90;;;;;;10330860;28;20705;-65
2023/03/26 20:54:29;;;;;;;0.63;0.60;;;9.10;99.90;;;;;;10317679;28;20287;-65
2023/03/26 20:59:29;;;;;;;5.17;0.93;;;9.10;99.90;;;;;;10320673;28;20280;-63
2023/03/26 21:04:30;;;;;;;0.67;0.67;;;9.00;99.90;;;;;;10322851;28;20308;-66
2023/03/26 21:09:34;;;;;;;0.93;0.70;;;8.90;99.90;;;;;;10312379;28;20897;-65
2023/03/26 21:14:39;;;;;;;1.47;0.70;;;8.90;99.90;;;;;;10310250;28;20232;-64
2023/03/26 21:19:41;;;;;;;3.27;0.90;;;8.90;99.90;;;;;;10308309;28;20936;-64
2023/03/26 21:25:00;;;;;;;2.17;1.40;;;8.80;99.90;;;;;;10311077;28;20221;-65
2023/03/26 21:30:01;;;;;;;3.13;1.43;;;8.80;99.90;;;;;;10326718;28;20210;-64
2023/03/26 21:35:03;;;;;;;2.10;1.20;;;8.80;99.90;;;;;;10315415;28;20276;-64
2023/03/26 21:40:16;;;;;;;2.97;1.20;;;8.80;99.90;;;;;;10315384;28;20257;-66
2023/03/26 21:45:18;;;;;;;2.53;1.47;;;8.80;99.90;;;;;;10306165;28;20268;-65
2023/03/26 21:50:21;;;;;;;2.97;1.40;;;8.80;99.90;;;;;;10314793;28;20264;-64
2023/03/26 21:55:23;;;;;;;0.90;0.77;;;8.80;99.90;;;;;;10309238;28;20923;-66
2023/03/26 22:00:28;;;;;;;1.90;0.90;;;8.80;99.90;;;;;;10311682;28;20813;-66
2023/03/26 22:05:55;;;;;;;0.40;0.40;;;8.60;99.90;;;;;;10309253;28;20213;-66
2023/03/26 22:10:56;;;;;;;0.30;0.30;;;8.50;99.90;;;;;;10307762;28;20228;-67
2023/03/26 22:15:56;;;;;;;0.50;0.50;;;8.40;99.90;;;;;;10306056;28;20224;-67
2023/03/26 22:20:58;;;;;;;0.47;0.43;;;8.30;99.90;;;;;;10312228;28;20232;-67
2023/03/26 22:25:59;;;;;;;0.73;0.50;;;8.10;99.90;;;;;;10311168;28;20227;-67
2023/03/26 22:31:07;;;;;;;0.60;0.60;;;8.10;99.90;;;;;;10322671;28;20220;-65
2023/03/26 22:36:09;;;;;;;1.43;0.50;;;8.10;99.90;;;;;;10305326;28;21075;-65
2023/03/26 22:41:10;;;;;;;0.60;0.60;;;8.10;99.90;;;;;;10320513;28;20263;-64
2023/03/26 22:46:11;;;;;;;2.20;0.60;;;8.10;99.90;;;;;;10324735;28;20260;-64
2023/03/26 22:51:12;;;;;;;0.60;0.60;;;8.10;99.90;;;;;;10311992;28;20716;-64
2023/03/26 22:56:14;;;;;;;0.90;0.60;;;8.20;99.90;;;;;;10311659;28;20212;-65
2023/03/26 23:01:21;;;;;;;0.60;0.60;;;8.20;99.90;;;;;;10319280;28;20240;-66
2023/03/26 23:06:22;;;;;;;0.77;0.77;;;8.10;99.90;;;;;;10316058;28;20220;-65
2023/03/26 23:11:23;;;;;;;1.40;1.30;;;8.00;99.90;;;;;;10305817;28;20275;-66
2023/03/26 23:16:23;;;;;;;2.20;1.30;;;7.90;99.90;;;;;;10311328;28;20211;-65
2023/03/26 23:21:24;;;;;;;1.53;1.43;;;7.80;99.90;;;;;;10309491;28;20229;-65
2023/03/26 23:26:28;;;;;;;1.77;1.40;;;7.70;99.90;;;;;;10314018;28;20221;-65
2023/03/26 23:31:30;;;;;;;1.93;1.40;;;7.70;99.90;;;;;;10308074;28;20273;-63
2023/03/26 23:36:31;;;;;;;5.07;1.73;;;7.70;99.90;;;;;;10311230;28;20219;-64
2023/03/26 23:41:32;;;;;;;4.10;1.40;;;7.60;99.90;;;;;;10306910;28;20226;-66
2023/03/26 23:46:33;;;;;;;1.93;1.33;;;7.60;99.90;;;;;;10307419;28;20277;-64
2023/03/26 23:51:34;;;;;;;3.40;1.20;;;7.50;99.90;;;;;;10306539;28;20223;-66
2023/03/26 23:56:35;;;;;;;2.20;1.10;;;7.50;99.90;;;;;;10313547;28;20219;-64
